createdAt,value
2022-08-28T00:03:17.509Z,99759.22
2022-08-28T00:06:58.466Z,99762.00
2022-08-28T00:15:48.199Z,99774.34
2022-08-28T00:30:12.827Z,99765.34
2022-08-28T02:28:41.946Z,99775.44
2022-08-28T03:14:40.950Z,99790.97
2022-08-28T03:33:09.219Z,99779.34
2022-08-28T03:56:04.534Z,99786.56
2022-08-28T06:27:47.498Z,99859.56
2022-08-28T06:45:51.154Z,99858.97
2022-08-28T06:50:11.559Z,99863.31
2022-08-28T07:50:10.285Z,99894.91
2022-08-28T08:50:02.415Z,99927.44
2022-08-28T09:24:05.628Z,99934.78
2022-08-28T09:33:43.553Z,99949.31
2022-08-28T09:37:46.963Z,99941.34
2022-08-28T09:46:51.299Z,99945.84
2022-08-28T10:00:41.526Z,99947.56
2022-08-28T10:04:47.990Z,99941.16
2022-08-28T10:09:09.897Z,99945.47
2022-08-28T10:13:28.895Z,99939.53
2022-08-28T10:27:05.013Z,99939.38
2022-08-28T10:31:33.558Z,99931.97
2022-08-28T10:36:05.378Z,99928.38
2022-08-28T10:40:25.839Z,99932.38
2022-08-28T10:44:43.473Z,99929.03
2022-08-28T10:49:35.429Z,99923.66
2022-08-28T10:53:59.341Z,99925.31
2022-08-28T10:58:24.623Z,99917.28
2022-08-28T11:02:45.881Z,99930.56
2022-08-28T11:06:52.216Z,99924.69
2022-08-28T11:10:54.632Z,99922.94
2022-08-28T11:15:19.867Z,99921.94
2022-08-28T11:19:24.386Z,99914.81
2022-08-28T11:23:41.538Z,99917.09
2022-08-28T11:28:03.066Z,99926.25
2022-08-28T11:32:30.243Z,99915.09
2022-08-28T11:36:33.862Z,99917.56
2022-08-28T11:40:55.079Z,99922.66
2022-08-28T11:44:56.846Z,99908.88
2022-08-28T11:48:59.482Z,99912.34
2022-08-28T11:53:16.087Z,99921.13
2022-08-28T11:57:36.597Z,99927.59
2022-08-28T12:01:39.315Z,99920.75
2022-08-28T12:05:59.550Z,99922.38
2022-08-28T12:10:05.010Z,99913.53
2022-08-28T12:14:08.194Z,99920.34
2022-08-28T12:18:10.499Z,99907.69
2022-08-28T12:26:50.311Z,99902.91
2022-08-28T12:31:12.872Z,99906.44
2022-08-28T12:35:29.595Z,99895.09
2022-08-28T12:39:38.185Z,99902.66
2022-08-28T12:43:46.654Z,99899.97
2022-08-28T12:47:49.911Z,99901.69
2022-08-28T12:52:16.633Z,99894.03
2022-08-28T12:56:20.365Z,99896.53
2022-08-28T13:00:24.242Z,99894.84
2022-08-28T13:04:32.693Z,99894.88
2022-08-28T13:08:36.966Z,99876.94
2022-08-28T13:12:56.086Z,99881.81
2022-08-28T13:16:58.961Z,99873.66
2022-08-28T13:21:33.152Z,99860.97
2022-08-28T13:25:42.949Z,99862.59
2022-08-28T13:29:59.676Z,99860.56
2022-08-28T13:34:21.916Z,99858.47
2022-08-28T13:38:25.103Z,99858.28
2022-08-28T13:42:26.753Z,99842.25
2022-08-28T13:46:28.540Z,99840.09
2022-08-28T13:50:30.452Z,99847.00
2022-08-28T13:54:32.291Z,99840.88
2022-08-28T13:58:34.940Z,99841.53
2022-08-28T14:02:56.833Z,99846.31
2022-08-28T14:06:58.403Z,99844.31
2022-08-28T14:10:59.971Z,99851.34
2022-08-28T14:15:02.758Z,99853.53
2022-08-28T14:19:05.913Z,99848.00
2022-08-28T14:23:11.481Z,99857.81
2022-08-28T14:27:13.968Z,99840.09
2022-08-28T14:31:15.754Z,99849.41
2022-08-28T14:35:17.341Z,99834.88
2022-08-28T14:39:18.836Z,99844.72
2022-08-28T14:43:20.292Z,99840.59
2022-08-28T14:47:21.851Z,99840.69
2022-08-28T14:51:23.570Z,99840.16
2022-08-28T14:55:26.399Z,99828.53
2022-08-28T14:59:29.710Z,99841.59
2022-08-28T15:03:31.191Z,99829.78
2022-08-28T15:07:42.116Z,99839.13
2022-08-28T15:11:44.421Z,99829.22
2022-08-28T15:15:46.490Z,99830.00
2022-08-28T15:19:47.961Z,99825.84
2022-08-28T15:23:50.771Z,99824.88
2022-08-28T15:27:52.267Z,99813.63
2022-08-28T15:31:53.860Z,99810.47
2022-08-28T15:35:56.192Z,99817.75
2022-08-28T15:40:16.645Z,99807.69
2022-08-28T15:44:18.196Z,99814.50
2022-08-28T15:48:19.945Z,99811.78
2022-08-28T15:52:21.639Z,99813.50
2022-08-28T15:56:24.261Z,99814.66
2022-08-28T16:00:25.787Z,99810.53
2022-08-28T16:04:27.380Z,99813.06
2022-08-28T16:08:29.461Z,99810.88
2022-08-28T16:12:31.408Z,99813.91
2022-08-28T16:16:33.006Z,99809.06
2022-08-28T16:20:36.444Z,99816.28
2022-08-28T16:24:38.372Z,99812.41
2022-08-28T16:28:39.977Z,99812.53
2022-08-28T16:32:46.758Z,99823.97
2022-08-28T16:36:48.672Z,99820.78
2022-08-28T16:40:50.157Z,99815.38
2022-08-28T16:44:55.332Z,99814.19
2022-08-28T16:48:56.925Z,99813.50
2022-08-28T16:53:02.453Z,99811.31
2022-08-28T16:57:06.331Z,99812.38
2022-08-28T17:01:13.585Z,99814.16
2022-08-28T17:05:16.776Z,99809.47
2022-08-28T17:09:21.113Z,99809.47
2022-08-28T17:13:22.847Z,99806.28
2022-08-28T17:17:24.415Z,99808.91
2022-08-28T17:21:47.522Z,99811.25
2022-08-28T17:25:49.399Z,99804.31
2022-08-28T17:29:51.151Z,99806.81
2022-08-28T17:33:52.656Z,99807.25
2022-08-28T17:37:54.269Z,99808.41
2022-08-28T17:41:55.871Z,99808.28
2022-08-28T17:45:57.337Z,99812.13
2022-08-28T17:49:59.920Z,99822.91
2022-08-28T17:54:02.073Z,99826.22
2022-08-28T17:58:03.712Z,99825.28
2022-08-28T18:02:05.246Z,99818.59
2022-08-28T18:06:06.875Z,99832.00
2022-08-28T18:10:09.624Z,99830.84
2022-08-28T18:14:11.237Z,99832.13
2022-08-28T18:18:13.485Z,99836.16
2022-08-28T18:22:15.180Z,99840.03
2022-08-28T18:26:17.653Z,99844.19
2022-08-28T18:30:19.173Z,99846.31
2022-08-28T18:34:20.801Z,99852.59
2022-08-28T18:38:23.067Z,99850.94
2022-08-28T18:42:24.719Z,99868.53
2022-08-28T18:46:26.542Z,99873.94
2022-08-28T18:50:30.798Z,99878.19
2022-08-28T18:54:32.416Z,99887.19
2022-08-28T18:58:34.299Z,99890.94
2022-08-28T19:02:40.776Z,99887.28
2022-08-28T19:06:43.075Z,99895.13
2022-08-28T19:10:46.689Z,99902.97
2022-08-28T19:14:48.301Z,99904.22
2022-08-28T19:18:51.476Z,99903.84
2022-08-28T19:22:55.802Z,99918.63
2022-08-28T19:26:57.327Z,99926.94
2022-08-28T19:30:59.446Z,99932.00
2022-08-28T19:35:02.020Z,99937.06
2022-08-28T19:39:04.464Z,99943.13
2022-08-28T19:43:06.174Z,99943.56
2022-08-28T19:47:19.466Z,99956.63
2022-08-28T19:51:23.105Z,99954.06
2022-08-28T19:55:26.485Z,99956.25
2022-08-28T19:59:28.114Z,99962.25
2022-08-28T20:03:30.510Z,99970.25
2022-08-28T20:07:32.196Z,99963.59
2022-08-28T20:11:33.847Z,99985.56
2022-08-28T20:15:35.797Z,99984.94
2022-08-28T20:19:37.459Z,99986.91
2022-08-28T20:23:45.298Z,99983.38
2022-08-28T20:27:46.972Z,99982.16
2022-08-28T20:31:56.304Z,99985.66
2022-08-28T20:36:01.867Z,99985.00
2022-08-28T20:40:09.196Z,99984.78
2022-08-28T20:44:12.919Z,99989.03
2022-08-28T20:48:14.573Z,99993.25
2022-08-28T20:52:16.458Z,99996.44
2022-08-28T20:56:18.179Z,100001.84
2022-08-28T21:00:19.716Z,99998.78
2022-08-28T21:04:21.216Z,100003.63
2022-08-28T21:08:22.706Z,100006.50
2022-08-28T21:12:24.683Z,100003.81
2022-08-28T21:16:26.549Z,100006.63
2022-08-28T21:20:28.777Z,100014.47
2022-08-28T21:24:32.259Z,100025.94
2022-08-28T21:28:33.909Z,100031.22
2022-08-28T21:32:36.260Z,100030.25
2022-08-28T21:36:38.475Z,100034.28
2022-08-28T21:40:40.651Z,100029.34
2022-08-28T21:44:51.189Z,100037.19
2022-08-28T21:48:54.718Z,100038.78
2022-08-28T21:52:56.699Z,100043.84
2022-08-28T21:57:04.292Z,100057.56
2022-08-28T22:01:05.805Z,100057.63
2022-08-28T22:05:07.555Z,100060.25
2022-08-28T22:09:09.093Z,100058.16
2022-08-28T22:13:11.552Z,100061.28
2022-08-28T22:17:15.329Z,100062.16
2022-08-28T22:21:38.374Z,100063.63
2022-08-28T22:25:41.289Z,100064.81
2022-08-28T22:29:43.480Z,100059.25
2022-08-28T22:33:45.499Z,100062.34
2022-08-28T22:37:47.453Z,100064.06
2022-08-28T22:41:48.993Z,100066.00
2022-08-28T22:45:50.497Z,100065.78
2022-08-28T22:49:54.606Z,100063.03
2022-08-28T22:53:56.501Z,100060.91
2022-08-28T22:57:58.871Z,100059.47
2022-08-28T23:02:00.797Z,100056.75
2022-08-28T23:06:02.469Z,100058.19
2022-08-28T23:10:05.439Z,100059.63
2022-08-28T23:14:07.023Z,100054.66
2022-08-28T23:18:08.560Z,100057.78
2022-08-28T23:22:10.040Z,100047.47
2022-08-28T23:26:12.824Z,100055.34
2022-08-28T23:30:19.787Z,100052.31
2022-08-28T23:34:21.793Z,100053.22
2022-08-28T23:38:23.406Z,100047.66
2022-08-28T23:42:25.017Z,100050.19
2022-08-28T23:46:27.968Z,100046.34
2022-08-28T23:50:29.456Z,100049.13
2022-08-28T23:54:30.963Z,100053.34
2022-08-28T23:58:32.656Z,100048.66
